sensor_id;sensor_type;location;lat;lon;timestamp;temperature;humidity
76263;DHT22;65080;50.908;6.916;2023-07-28T00:00:12;18.70;98.00
76263;DHT22;65080;50.908;6.916;2023-07-28T00:02:41;18.70;98.00
76263;DHT22;65080;50.908;6.916;2023-07-28T00:05:09;18.70;98.00
76263;DHT22;65080;50.908;6.916;2023-07-28T00:07:38;18.70;97.90
76263;DHT22;65080;50.908;6.916;2023-07-28T00:10:08;18.70;98.00
76263;DHT22;65080;50.908;6.916;2023-07-28T00:12:36;18.70;98.00
76263;DHT22;65080;50.908;6.916;2023-07-28T00:15:07;18.70;98.00
76263;DHT22;65080;50.908;6.916;2023-07-28T00:17:36;18.70;97.90
76263;DHT22;65080;50.908;6.916;2023-07-28T00:20:06;18.80;98.00
76263;DHT22;65080;50.908;6.916;2023-07-28T00:22:34;18.80;97.90
76263;DHT22;65080;50.908;6.916;2023-07-28T00:25:03;18.80;97.90
76263;DHT22;65080;50.908;6.916;2023-07-28T00:27:33;18.80;97.90
76263;DHT22;65080;50.908;6.916;2023-07-28T00:30:02;18.80;97.90
76263;DHT22;65080;50.908;6.916;2023-07-28T00:32:30;18.80;97.80
76263;DHT22;65080;50.908;6.916;2023-07-28T00:34:59;18.80;97.80
76263;DHT22;65080;50.908;6.916;2023-07-28T00:37:27;18.80;97.80
76263;DHT22;65080;50.908;6.916;2023-07-28T00:39:56;18.80;97.80
76263;DHT22;65080;50.908;6.916;2023-07-28T00:42:24;18.80;97.90
76263;DHT22;65080;50.908;6.916;2023-07-28T00:44:54;18.80;97.80
76263;DHT22;65080;50.908;6.916;2023-07-28T00:47:22;18.80;97.70
76263;DHT22;65080;50.908;6.916;2023-07-28T00:49:51;18.80;97.80
76263;DHT22;65080;50.908;6.916;2023-07-28T00:52:19;18.80;97.70
76263;DHT22;65080;50.908;6.916;2023-07-28T00:54:47;18.90;97.80
76263;DHT22;65080;50.908;6.916;2023-07-28T00:57:16;18.80;97.70
76263;DHT22;65080;50.908;6.916;2023-07-28T00:59:46;18.90;97.60
76263;DHT22;65080;50.908;6.916;2023-07-28T01:02:19;18.90;97.60
76263;DHT22;65080;50.908;6.916;2023-07-28T01:04:48;18.90;97.50
76263;DHT22;65080;50.908;6.916;2023-07-28T01:07:23;18.90;97.40
76263;DHT22;65080;50.908;6.916;2023-07-28T01:10:00;18.80;97.30
76263;DHT22;65080;50.908;6.916;2023-07-28T01:12:30;18.80;97.30
76263;DHT22;65080;50.908;6.916;2023-07-28T01:14:58;18.80;97.30
76263;DHT22;65080;50.908;6.916;2023-07-28T01:17:28;18.80;97.30
76263;DHT22;65080;50.908;6.916;2023-07-28T01:19:57;18.90;97.30
76263;DHT22;65080;50.908;6.916;2023-07-28T01:22:46;18.90;97.30
76263;DHT22;65080;50.908;6.916;2023-07-28T01:25:22;18.90;97.30
76263;DHT22;65080;50.908;6.916;2023-07-28T01:27:58;18.90;97.30
76263;DHT22;65080;50.908;6.916;2023-07-28T01:30:28;18.90;97.30
76263;DHT22;65080;50.908;6.916;2023-07-28T01:32:57;18.90;97.30
76263;DHT22;65080;50.908;6.916;2023-07-28T01:35:26;18.90;97.30
76263;DHT22;65080;50.908;6.916;2023-07-28T01:37:55;18.90;97.30
76263;DHT22;65080;50.908;6.916;2023-07-28T01:40:23;19.00;97.40
76263;DHT22;65080;50.908;6.916;2023-07-28T01:42:52;19.00;97.30
76263;DHT22;65080;50.908;6.916;2023-07-28T01:45:22;19.00;97.20
76263;DHT22;65080;50.908;6.916;2023-07-28T01:47:50;18.90;97.20
76263;DHT22;65080;50.908;6.916;2023-07-28T01:50:19;18.90;97.10
76263;DHT22;65080;50.908;6.916;2023-07-28T01:52:47;18.90;97.00
76263;DHT22;65080;50.908;6.916;2023-07-28T01:55:15;18.90;96.90
76263;DHT22;65080;50.908;6.916;2023-07-28T01:57:54;18.80;96.80
76263;DHT22;65080;50.908;6.916;2023-07-28T02:00:24;18.80;97.00
76263;DHT22;65080;50.908;6.916;2023-07-28T02:02:53;18.70;97.10
76263;DHT22;65080;50.908;6.916;2023-07-28T02:05:22;18.70;97.20
76263;DHT22;65080;50.908;6.916;2023-07-28T02:07:50;18.70;97.20
76263;DHT22;65080;50.908;6.916;2023-07-28T02:10:19;18.70;97.30
76263;DHT22;65080;50.908;6.916;2023-07-28T02:12:47;18.80;97.40
76263;DHT22;65080;50.908;6.916;2023-07-28T02:15:15;18.70;97.30
76263;DHT22;65080;50.908;6.916;2023-07-28T02:17:45;18.70;97.40
76263;DHT22;65080;50.908;6.916;2023-07-28T02:20:14;18.80;97.50
76263;DHT22;65080;50.908;6.916;2023-07-28T02:22:43;18.70;97.50
76263;DHT22;65080;50.908;6.916;2023-07-28T02:25:11;18.70;97.60
76263;DHT22;65080;50.908;6.916;2023-07-28T02:27:39;18.80;97.70
76263;DHT22;65080;50.908;6.916;2023-07-28T02:30:08;18.80;97.80
76263;DHT22;65080;50.908;6.916;2023-07-28T02:32:37;18.80;97.80
76263;DHT22;65080;50.908;6.916;2023-07-28T02:35:08;18.80;97.70
76263;DHT22;65080;50.908;6.916;2023-07-28T02:37:37;18.80;97.80
76263;DHT22;65080;50.908;6.916;2023-07-28T02:40:07;18.90;97.90
76263;DHT22;65080;50.908;6.916;2023-07-28T02:42:35;18.90;97.80
76263;DHT22;65080;50.908;6.916;2023-07-28T02:45:04;18.90;97.80
76263;DHT22;65080;50.908;6.916;2023-07-28T02:47:33;18.90;97.80
76263;DHT22;65080;50.908;6.916;2023-07-28T02:50:01;18.90;97.80
76263;DHT22;65080;50.908;6.916;2023-07-28T02:52:31;18.90;97.80
76263;DHT22;65080;50.908;6.916;2023-07-28T02:55:00;18.90;97.80
76263;DHT22;65080;50.908;6.916;2023-07-28T02:57:28;18.90;97.80
76263;DHT22;65080;50.908;6.916;2023-07-28T02:59:56;18.90;97.70
76263;DHT22;65080;50.908;6.916;2023-07-28T03:02:25;18.80;97.70
76263;DHT22;65080;50.908;6.916;2023-07-28T03:04:54;18.90;97.70
76263;DHT22;65080;50.908;6.916;2023-07-28T03:07:22;19.00;98.10
76263;DHT22;65080;50.908;6.916;2023-07-28T03:09:51;18.90;97.70
76263;DHT22;65080;50.908;6.916;2023-07-28T03:12:20;18.90;97.70
76263;DHT22;65080;50.908;6.916;2023-07-28T03:14:48;19.00;97.80
76263;DHT22;65080;50.908;6.916;2023-07-28T03:17:17;19.00;97.70
76263;DHT22;65080;50.908;6.916;2023-07-28T03:19:45;18.90;97.60
76263;DHT22;65080;50.908;6.916;2023-07-28T03:22:13;18.90;97.60
76263;DHT22;65080;50.908;6.916;2023-07-28T03:24:42;18.90;97.60
76263;DHT22;65080;50.908;6.916;2023-07-28T03:27:14;18.90;97.60
76263;DHT22;65080;50.908;6.916;2023-07-28T03:29:43;18.90;97.60
76263;DHT22;65080;50.908;6.916;2023-07-28T03:32:11;18.90;97.60
76263;DHT22;65080;50.908;6.916;2023-07-28T03:34:40;19.00;97.60
76263;DHT22;65080;50.908;6.916;2023-07-28T03:37:08;18.90;97.60
76263;DHT22;65080;50.908;6.916;2023-07-28T03:39:36;18.90;97.60
76263;DHT22;65080;50.908;6.916;2023-07-28T03:42:05;18.90;97.60
76263;DHT22;65080;50.908;6.916;2023-07-28T03:44:35;18.90;97.60
76263;DHT22;65080;50.908;6.916;2023-07-28T03:47:05;18.90;97.60
76263;DHT22;65080;50.908;6.916;2023-07-28T03:49:33;19.00;97.60
76263;DHT22;65080;50.908;6.916;2023-07-28T03:52:02;19.00;97.60
76263;DHT22;65080;50.908;6.916;2023-07-28T03:54:30;19.00;97.60
76263;DHT22;65080;50.908;6.916;2023-07-28T03:56:58;18.90;97.60
76263;DHT22;65080;50.908;6.916;2023-07-28T03:59:27;19.00;97.70
76263;DHT22;65080;50.908;6.916;2023-07-28T04:01:56;19.00;97.70
76263;DHT22;65080;50.908;6.916;2023-07-28T04:04:25;19.00;97.70
76263;DHT22;65080;50.908;6.916;2023-07-28T04:06:53;19.00;97.60
76263;DHT22;65080;50.908;6.916;2023-07-28T04:09:22;19.00;97.70
76263;DHT22;65080;50.908;6.916;2023-07-28T04:11:50;19.00;97.80
76263;DHT22;65080;50.908;6.916;2023-07-28T04:14:19;18.90;97.70
76263;DHT22;65080;50.908;6.916;2023-07-28T04:16:47;19.00;97.70
76263;DHT22;65080;50.908;6.916;2023-07-28T04:19:17;19.00;97.70
76263;DHT22;65080;50.908;6.916;2023-07-28T04:21:46;19.00;97.70
76263;DHT22;65080;50.908;6.916;2023-07-28T04:24:14;19.00;97.80
76263;DHT22;65080;50.908;6.916;2023-07-28T04:26:42;19.00;97.80
76263;DHT22;65080;50.908;6.916;2023-07-28T04:29:11;19.00;97.80
76263;DHT22;65080;50.908;6.916;2023-07-28T04:31:39;19.00;97.80
76263;DHT22;65080;50.908;6.916;2023-07-28T04:34:07;19.00;97.80
76263;DHT22;65080;50.908;6.916;2023-07-28T04:36:37;19.00;97.80
76263;DHT22;65080;50.908;6.916;2023-07-28T04:39:06;19.00;97.80
76263;DHT22;65080;50.908;6.916;2023-07-28T04:41:34;19.00;97.80
76263;DHT22;65080;50.908;6.916;2023-07-28T04:44:03;19.00;97.80
76263;DHT22;65080;50.908;6.916;2023-07-28T04:46:31;19.10;97.80
76263;DHT22;65080;50.908;6.916;2023-07-28T04:49:00;19.10;97.70
76263;DHT22;65080;50.908;6.916;2023-07-28T04:51:29;19.10;97.80
76263;DHT22;65080;50.908;6.916;2023-07-28T04:53:59;19.10;97.90
76263;DHT22;65080;50.908;6.916;2023-07-28T04:56:27;19.10;97.80
76263;DHT22;65080;50.908;6.916;2023-07-28T04:58:56;19.10;97.80
76263;DHT22;65080;50.908;6.916;2023-07-28T05:01:26;19.10;97.90
76263;DHT22;65080;50.908;6.916;2023-07-28T05:03:55;19.10;98.00
76263;DHT22;65080;50.908;6.916;2023-07-28T05:06:23;19.00;97.90
76263;DHT22;65080;50.908;6.916;2023-07-28T05:08:52;19.10;98.10
76263;DHT22;65080;50.908;6.916;2023-07-28T05:11:21;19.00;98.10
76263;DHT22;65080;50.908;6.916;2023-07-28T05:13:50;19.10;98.20
76263;DHT22;65080;50.908;6.916;2023-07-28T05:16:18;19.10;98.20
76263;DHT22;65080;50.908;6.916;2023-07-28T05:18:47;19.20;98.30
76263;DHT22;65080;50.908;6.916;2023-07-28T05:21:15;19.20;98.30
76263;DHT22;65080;50.908;6.916;2023-07-28T05:23:43;19.20;98.20
76263;DHT22;65080;50.908;6.916;2023-07-28T05:26:12;19.10;98.00
76263;DHT22;65080;50.908;6.916;2023-07-28T05:28:42;19.20;98.00
76263;DHT22;65080;50.908;6.916;2023-07-28T05:31:10;19.10;98.30
76263;DHT22;65080;50.908;6.916;2023-07-28T05:33:39;19.10;98.20
76263;DHT22;65080;50.908;6.916;2023-07-28T05:36:07;19.10;98.50
76263;DHT22;65080;50.908;6.916;2023-07-28T05:38:36;19.10;98.80
76263;DHT22;65080;50.908;6.916;2023-07-28T05:41:04;19.10;98.40
76263;DHT22;65080;50.908;6.916;2023-07-28T05:43:34;19.10;98.60
76263;DHT22;65080;50.908;6.916;2023-07-28T05:46:03;19.10;98.60
76263;DHT22;65080;50.908;6.916;2023-07-28T05:48:32;19.10;98.70
76263;DHT22;65080;50.908;6.916;2023-07-28T05:51:01;19.20;98.80
76263;DHT22;65080;50.908;6.916;2023-07-28T05:53:30;19.20;98.70
76263;DHT22;65080;50.908;6.916;2023-07-28T05:55:58;19.10;98.60
76263;DHT22;65080;50.908;6.916;2023-07-28T05:58:27;19.10;98.70
76263;DHT22;65080;50.908;6.916;2023-07-28T06:00:55;19.20;98.80
76263;DHT22;65080;50.908;6.916;2023-07-28T06:03:25;19.20;98.80
76263;DHT22;65080;50.908;6.916;2023-07-28T06:05:53;19.20;98.90
76263;DHT22;65080;50.908;6.916;2023-07-28T06:08:21;19.20;99.10
76263;DHT22;65080;50.908;6.916;2023-07-28T06:10:50;19.20;99.10
76263;DHT22;65080;50.908;6.916;2023-07-28T06:13:18;19.30;99.00
76263;DHT22;65080;50.908;6.916;2023-07-28T06:15:48;19.30;99.00
76263;DHT22;65080;50.908;6.916;2023-07-28T06:18:16;19.20;98.90
76263;DHT22;65080;50.908;6.916;2023-07-28T06:20:46;19.20;99.00
76263;DHT22;65080;50.908;6.916;2023-07-28T06:23:14;19.30;99.10
76263;DHT22;65080;50.908;6.916;2023-07-28T06:25:43;19.30;99.20
76263;DHT22;65080;50.908;6.916;2023-07-28T06:28:13;19.20;99.00
76263;DHT22;65080;50.908;6.916;2023-07-28T06:30:42;19.30;99.10
76263;DHT22;65080;50.908;6.916;2023-07-28T06:33:10;19.20;99.10
76263;DHT22;65080;50.908;6.916;2023-07-28T06:35:39;19.30;99.10
76263;DHT22;65080;50.908;6.916;2023-07-28T06:38:08;19.30;99.20
76263;DHT22;65080;50.908;6.916;2023-07-28T06:40:37;19.30;99.40
76263;DHT22;65080;50.908;6.916;2023-07-28T06:43:05;19.30;99.40
76263;DHT22;65080;50.908;6.916;2023-07-28T06:45:34;19.40;99.50
76263;DHT22;65080;50.908;6.916;2023-07-28T06:48:03;19.40;99.30
76263;DHT22;65080;50.908;6.916;2023-07-28T06:50:32;19.50;99.30
76263;DHT22;65080;50.908;6.916;2023-07-28T06:53:01;19.50;99.30
76263;DHT22;65080;50.908;6.916;2023-07-28T06:55:31;19.50;99.60
76263;DHT22;65080;50.908;6.916;2023-07-28T06:57:59;19.50;99.20
76263;DHT22;65080;50.908;6.916;2023-07-28T07:00:27;19.50;99.10
76263;DHT22;65080;50.908;6.916;2023-07-28T07:02:56;19.60;99.10
76263;DHT22;65080;50.908;6.916;2023-07-28T07:05:24;19.60;99.10
76263;DHT22;65080;50.908;6.916;2023-07-28T07:07:53;19.60;99.20
76263;DHT22;65080;50.908;6.916;2023-07-28T07:10:22;19.70;99.20
76263;DHT22;65080;50.908;6.916;2023-07-28T07:12:51;19.70;99.10
76263;DHT22;65080;50.908;6.916;2023-07-28T07:15:20;19.70;99.00
76263;DHT22;65080;50.908;6.916;2023-07-28T07:17:48;19.70;98.90
76263;DHT22;65080;50.908;6.916;2023-07-28T07:20:17;19.80;98.90
76263;DHT22;65080;50.908;6.916;2023-07-28T07:22:45;19.80;98.90
76263;DHT22;65080;50.908;6.916;2023-07-28T07:25:14;19.80;98.80
76263;DHT22;65080;50.908;6.916;2023-07-28T07:27:42;19.80;98.80
76263;DHT22;65080;50.908;6.916;2023-07-28T07:30:12;19.90;98.70
76263;DHT22;65080;50.908;6.916;2023-07-28T07:32:41;19.90;98.60
76263;DHT22;65080;50.908;6.916;2023-07-28T07:35:10;20.00;98.60
76263;DHT22;65080;50.908;6.916;2023-07-28T07:37:38;20.00;98.40
76263;DHT22;65080;50.908;6.916;2023-07-28T07:40:07;20.00;98.30
76263;DHT22;65080;50.908;6.916;2023-07-28T07:42:41;20.00;98.40
76263;DHT22;65080;50.908;6.916;2023-07-28T07:45:12;19.90;98.30
76263;DHT22;65080;50.908;6.916;2023-07-28T07:47:41;20.00;98.20
76263;DHT22;65080;50.908;6.916;2023-07-28T07:50:11;20.00;98.20
76263;DHT22;65080;50.908;6.916;2023-07-28T07:52:39;20.10;98.10
76263;DHT22;65080;50.908;6.916;2023-07-28T07:55:09;20.10;98.00
76263;DHT22;65080;50.908;6.916;2023-07-28T07:57:39;20.10;98.10
76263;DHT22;65080;50.908;6.916;2023-07-28T08:00:09;20.10;98.00
76263;DHT22;65080;50.908;6.916;2023-07-28T08:02:39;20.10;97.90
76263;DHT22;65080;50.908;6.916;2023-07-28T08:05:12;20.20;97.90
76263;DHT22;65080;50.908;6.916;2023-07-28T08:07:41;20.20;98.00
76263;DHT22;65080;50.908;6.916;2023-07-28T08:10:12;20.20;97.90
76263;DHT22;65080;50.908;6.916;2023-07-28T08:12:41;20.40;97.90
76263;DHT22;65080;50.908;6.916;2023-07-28T08:15:12;20.40;97.80
76263;DHT22;65080;50.908;6.916;2023-07-28T08:17:42;20.50;97.70
76263;DHT22;65080;50.908;6.916;2023-07-28T08:20:10;20.60;97.70
76263;DHT22;65080;50.908;6.916;2023-07-28T08:22:38;20.60;97.70
76263;DHT22;65080;50.908;6.916;2023-07-28T08:25:07;20.70;97.60
76263;DHT22;65080;50.908;6.916;2023-07-28T08:27:36;20.80;97.50
76263;DHT22;65080;50.908;6.916;2023-07-28T08:30:05;20.90;97.30
76263;DHT22;65080;50.908;6.916;2023-07-28T08:32:34;21.00;97.00
76263;DHT22;65080;50.908;6.916;2023-07-28T08:35:04;21.00;96.80
76263;DHT22;65080;50.908;6.916;2023-07-28T08:37:33;21.10;96.60
76263;DHT22;65080;50.908;6.916;2023-07-28T08:40:02;21.10;96.30
76263;DHT22;65080;50.908;6.916;2023-07-28T08:42:36;21.20;96.20
76263;DHT22;65080;50.908;6.916;2023-07-28T08:45:05;21.30;96.00
76263;DHT22;65080;50.908;6.916;2023-07-28T08:47:36;21.30;95.80
76263;DHT22;65080;50.908;6.916;2023-07-28T08:50:06;21.40;95.70
76263;DHT22;65080;50.908;6.916;2023-07-28T08:52:35;21.40;95.20
76263;DHT22;65080;50.908;6.916;2023-07-28T08:55:04;21.50;94.70
76263;DHT22;65080;50.908;6.916;2023-07-28T08:57:33;21.50;94.50
76263;DHT22;65080;50.908;6.916;2023-07-28T09:00:07;21.60;94.30
76263;DHT22;65080;50.908;6.916;2023-07-28T09:02:36;21.60;94.00
76263;DHT22;65080;50.908;6.916;2023-07-28T09:05:06;21.70;93.60
76263;DHT22;65080;50.908;6.916;2023-07-28T09:07:36;21.70;93.30
76263;DHT22;65080;50.908;6.916;2023-07-28T09:10:05;21.80;93.20
76263;DHT22;65080;50.908;6.916;2023-07-28T09:12:36;21.90;93.10
76263;DHT22;65080;50.908;6.916;2023-07-28T09:15:12;22.00;92.70
76263;DHT22;65080;50.908;6.916;2023-07-28T09:17:42;22.00;92.20
76263;DHT22;65080;50.908;6.916;2023-07-28T09:20:15;22.20;92.20
76263;DHT22;65080;50.908;6.916;2023-07-28T09:22:44;22.30;92.10
76263;DHT22;65080;50.908;6.916;2023-07-28T09:25:14;22.40;91.80
76263;DHT22;65080;50.908;6.916;2023-07-28T09:27:49;22.50;91.20
76263;DHT22;65080;50.908;6.916;2023-07-28T09:30:18;22.60;90.70
76263;DHT22;65080;50.908;6.916;2023-07-28T09:32:48;22.50;90.30
76263;DHT22;65080;50.908;6.916;2023-07-28T09:35:19;22.50;90.10
76263;DHT22;65080;50.908;6.916;2023-07-28T09:37:50;22.70;89.70
76263;DHT22;65080;50.908;6.916;2023-07-28T09:40:21;22.70;88.90
76263;DHT22;65080;50.908;6.916;2023-07-28T09:42:50;22.80;88.50
76263;DHT22;65080;50.908;6.916;2023-07-28T09:45:23;22.80;87.80
76263;DHT22;65080;50.908;6.916;2023-07-28T09:47:56;22.90;86.80
76263;DHT22;65080;50.908;6.916;2023-07-28T09:50:27;22.90;85.50
76263;DHT22;65080;50.908;6.916;2023-07-28T09:53:02;22.90;85.00
76263;DHT22;65080;50.908;6.916;2023-07-28T09:55:33;23.00;84.40
76263;DHT22;65080;50.908;6.916;2023-07-28T09:58:04;23.00;84.10
76263;DHT22;65080;50.908;6.916;2023-07-28T10:00:34;23.00;83.90
76263;DHT22;65080;50.908;6.916;2023-07-28T10:03:03;23.10;84.10
76263;DHT22;65080;50.908;6.916;2023-07-28T10:05:34;23.10;83.80
76263;DHT22;65080;50.908;6.916;2023-07-28T10:08:04;23.20;83.00
76263;DHT22;65080;50.908;6.916;2023-07-28T10:10:33;23.20;82.40
76263;DHT22;65080;50.908;6.916;2023-07-28T10:13:02;23.20;82.10
76263;DHT22;65080;50.908;6.916;2023-07-28T10:15:32;23.20;81.80
76263;DHT22;65080;50.908;6.916;2023-07-28T10:18:00;23.20;81.30
76263;DHT22;65080;50.908;6.916;2023-07-28T10:20:35;23.30;81.40
76263;DHT22;65080;50.908;6.916;2023-07-28T10:23:09;23.30;81.10
76263;DHT22;65080;50.908;6.916;2023-07-28T10:25:39;23.40;81.10
76263;DHT22;65080;50.908;6.916;2023-07-28T10:28:25;23.50;80.80
76263;DHT22;65080;50.908;6.916;2023-07-28T10:30:54;23.50;80.10
76263;DHT22;65080;50.908;6.916;2023-07-28T10:33:28;23.60;80.60
76263;DHT22;65080;50.908;6.916;2023-07-28T10:35:59;23.60;80.40
76263;DHT22;65080;50.908;6.916;2023-07-28T10:38:28;23.70;80.40
76263;DHT22;65080;50.908;6.916;2023-07-28T10:41:14;23.70;79.80
76263;DHT22;65080;50.908;6.916;2023-07-28T10:43:43;23.80;79.10
76263;DHT22;65080;50.908;6.916;2023-07-28T10:46:16;23.90;79.30
76263;DHT22;65080;50.908;6.916;2023-07-28T10:48:46;23.80;78.30
76263;DHT22;65080;50.908;6.916;2023-07-28T10:51:22;23.90;77.90
76263;DHT22;65080;50.908;6.916;2023-07-28T10:53:54;23.90;77.60
76263;DHT22;65080;50.908;6.916;2023-07-28T10:56:23;24.00;78.10
76263;DHT22;65080;50.908;6.916;2023-07-28T10:58:56;24.10;77.80
76263;DHT22;65080;50.908;6.916;2023-07-28T11:01:31;24.10;78.00
76263;DHT22;65080;50.908;6.916;2023-07-28T11:04:07;24.20;77.80
76263;DHT22;65080;50.908;6.916;2023-07-28T11:06:38;24.30;77.30
76263;DHT22;65080;50.908;6.916;2023-07-28T11:09:07;24.40;77.10
76263;DHT22;65080;50.908;6.916;2023-07-28T11:11:37;24.50;76.40
76263;DHT22;65080;50.908;6.916;2023-07-28T11:14:07;24.50;76.30
76263;DHT22;65080;50.908;6.916;2023-07-28T11:16:36;24.50;76.00
76263;DHT22;65080;50.908;6.916;2023-07-28T11:19:09;24.50;75.30
76263;DHT22;65080;50.908;6.916;2023-07-28T11:21:39;24.30;75.00
76263;DHT22;65080;50.908;6.916;2023-07-28T11:24:08;24.30;75.30
76263;DHT22;65080;50.908;6.916;2023-07-28T11:26:38;24.30;74.70
76263;DHT22;65080;50.908;6.916;2023-07-28T11:29:06;24.30;74.10
76263;DHT22;65080;50.908;6.916;2023-07-28T11:31:35;24.30;74.40
76263;DHT22;65080;50.908;6.916;2023-07-28T11:34:04;24.30;74.80
76263;DHT22;65080;50.908;6.916;2023-07-28T11:36:41;24.30;74.40
76263;DHT22;65080;50.908;6.916;2023-07-28T11:39:10;24.40;74.00
76263;DHT22;65080;50.908;6.916;2023-07-28T11:41:39;24.40;73.80
76263;DHT22;65080;50.908;6.916;2023-07-28T11:44:08;24.30;73.90
76263;DHT22;65080;50.908;6.916;2023-07-28T11:46:37;24.30;73.80
76263;DHT22;65080;50.908;6.916;2023-07-28T11:49:09;24.10;73.60
76263;DHT22;65080;50.908;6.916;2023-07-28T11:51:38;24.00;74.30
76263;DHT22;65080;50.908;6.916;2023-07-28T11:54:12;23.90;74.70
76263;DHT22;65080;50.908;6.916;2023-07-28T11:56:42;23.90;74.80
76263;DHT22;65080;50.908;6.916;2023-07-28T11:59:11;23.90;74.80
76263;DHT22;65080;50.908;6.916;2023-07-28T12:01:52;24.00;74.80
76263;DHT22;65080;50.908;6.916;2023-07-28T12:04:25;24.10;75.50
76263;DHT22;65080;50.908;6.916;2023-07-28T12:07:07;24.30;74.90
76263;DHT22;65080;50.908;6.916;2023-07-28T12:09:50;24.50;73.80
76263;DHT22;65080;50.908;6.916;2023-07-28T12:12:23;24.70;73.10
76263;DHT22;65080;50.908;6.916;2023-07-28T12:14:53;24.80;72.90
76263;DHT22;65080;50.908;6.916;2023-07-28T12:17:26;25.00;72.40
76263;DHT22;65080;50.908;6.916;2023-07-28T12:20:15;25.00;71.40
76263;DHT22;65080;50.908;6.916;2023-07-28T12:22:45;25.00;71.00
76263;DHT22;65080;50.908;6.916;2023-07-28T12:25:14;25.10;70.70
76263;DHT22;65080;50.908;6.916;2023-07-28T12:27:43;25.10;70.40
76263;DHT22;65080;50.908;6.916;2023-07-28T12:30:12;25.20;70.00
76263;DHT22;65080;50.908;6.916;2023-07-28T12:32:43;25.20;69.50
76263;DHT22;65080;50.908;6.916;2023-07-28T12:35:15;25.20;69.10
76263;DHT22;65080;50.908;6.916;2023-07-28T12:37:43;25.20;68.70
76263;DHT22;65080;50.908;6.916;2023-07-28T12:40:16;25.10;68.40
76263;DHT22;65080;50.908;6.916;2023-07-28T12:42:47;25.10;68.10
76263;DHT22;65080;50.908;6.916;2023-07-28T12:45:18;25.10;67.80
76263;DHT22;65080;50.908;6.916;2023-07-28T12:47:49;25.10;67.70
76263;DHT22;65080;50.908;6.916;2023-07-28T12:50:25;25.10;67.50
76263;DHT22;65080;50.908;6.916;2023-07-28T12:52:53;25.00;67.40
76263;DHT22;65080;50.908;6.916;2023-07-28T12:55:26;25.10;67.40
76263;DHT22;65080;50.908;6.916;2023-07-28T12:57:55;25.10;67.10
76263;DHT22;65080;50.908;6.916;2023-07-28T13:00:25;25.10;67.30
76263;DHT22;65080;50.908;6.916;2023-07-28T13:02:57;25.10;67.40
76263;DHT22;65080;50.908;6.916;2023-07-28T13:05:26;25.10;67.20
76263;DHT22;65080;50.908;6.916;2023-07-28T13:07:54;25.10;67.20
76263;DHT22;65080;50.908;6.916;2023-07-28T13:10:27;25.10;67.50
76263;DHT22;65080;50.908;6.916;2023-07-28T13:12:58;25.00;67.60
76263;DHT22;65080;50.908;6.916;2023-07-28T13:15:26;25.00;67.70
76263;DHT22;65080;50.908;6.916;2023-07-28T13:17:55;25.00;67.80
76263;DHT22;65080;50.908;6.916;2023-07-28T13:20:23;25.00;67.80
76263;DHT22;65080;50.908;6.916;2023-07-28T13:22:51;25.10;67.70
76263;DHT22;65080;50.908;6.916;2023-07-28T13:25:19;25.30;67.40
76263;DHT22;65080;50.908;6.916;2023-07-28T13:27:49;25.40;66.80
76263;DHT22;65080;50.908;6.916;2023-07-28T13:30:17;25.60;66.50
76263;DHT22;65080;50.908;6.916;2023-07-28T13:32:46;25.70;66.20
76263;DHT22;65080;50.908;6.916;2023-07-28T13:35:14;25.70;66.20
76263;DHT22;65080;50.908;6.916;2023-07-28T13:37:43;25.70;66.20
76263;DHT22;65080;50.908;6.916;2023-07-28T13:40:12;25.70;66.10
76263;DHT22;65080;50.908;6.916;2023-07-28T13:42:40;25.70;66.30
76263;DHT22;65080;50.908;6.916;2023-07-28T13:45:10;25.80;66.20
76263;DHT22;65080;50.908;6.916;2023-07-28T13:47:38;25.80;66.10
76263;DHT22;65080;50.908;6.916;2023-07-28T13:50:07;25.80;65.70
76263;DHT22;65080;50.908;6.916;2023-07-28T13:52:35;25.90;65.60
76263;DHT22;65080;50.908;6.916;2023-07-28T13:55:04;25.90;65.60
76263;DHT22;65080;50.908;6.916;2023-07-28T13:57:35;26.00;65.60
76263;DHT22;65080;50.908;6.916;2023-07-28T14:00:05;25.90;65.40
76263;DHT22;65080;50.908;6.916;2023-07-28T14:02:38;25.90;65.50
76263;DHT22;65080;50.908;6.916;2023-07-28T14:05:07;25.80;65.60
76263;DHT22;65080;50.908;6.916;2023-07-28T14:07:36;25.80;65.40
76263;DHT22;65080;50.908;6.916;2023-07-28T14:10:05;25.70;65.10
76263;DHT22;65080;50.908;6.916;2023-07-28T14:12:34;25.70;65.20
76263;DHT22;65080;50.908;6.916;2023-07-28T14:15:03;25.80;65.30
76263;DHT22;65080;50.908;6.916;2023-07-28T14:17:31;26.00;65.20
76263;DHT22;65080;50.908;6.916;2023-07-28T14:20:01;26.00;64.40
76263;DHT22;65080;50.908;6.916;2023-07-28T14:22:29;26.10;63.50
76263;DHT22;65080;50.908;6.916;2023-07-28T14:24:57;26.20;63.40
76263;DHT22;65080;50.908;6.916;2023-07-28T14:27:25;26.20;63.20
76263;DHT22;65080;50.908;6.916;2023-07-28T14:29:54;26.30;63.50
76263;DHT22;65080;50.908;6.916;2023-07-28T14:32:22;26.40;63.30
76263;DHT22;65080;50.908;6.916;2023-07-28T14:34:51;26.50;63.10
76263;DHT22;65080;50.908;6.916;2023-07-28T14:37:20;26.40;62.80
76263;DHT22;65080;50.908;6.916;2023-07-28T14:39:49;26.30;62.90
76263;DHT22;65080;50.908;6.916;2023-07-28T14:42:17;26.30;63.40
76263;DHT22;65080;50.908;6.916;2023-07-28T14:44:45;26.10;63.90
76263;DHT22;65080;50.908;6.916;2023-07-28T14:47:14;26.00;64.40
76263;DHT22;65080;50.908;6.916;2023-07-28T14:49:42;25.90;65.20
76263;DHT22;65080;50.908;6.916;2023-07-28T14:52:10;25.80;65.90
76263;DHT22;65080;50.908;6.916;2023-07-28T14:54:40;25.80;66.70
76263;DHT22;65080;50.908;6.916;2023-07-28T14:57:08;25.80;67.30
76263;DHT22;65080;50.908;6.916;2023-07-28T15:00:00;25.80;67.60
76263;DHT22;65080;50.908;6.916;2023-07-28T15:02:28;25.60;67.80
76263;DHT22;65080;50.908;6.916;2023-07-28T15:04:57;25.60;68.10
76263;DHT22;65080;50.908;6.916;2023-07-28T15:07:25;25.60;68.00
76263;DHT22;65080;50.908;6.916;2023-07-28T15:09:54;25.60;67.60
76263;DHT22;65080;50.908;6.916;2023-07-28T15:12:23;25.40;67.80
76263;DHT22;65080;50.908;6.916;2023-07-28T15:14:51;25.30;68.40
76263;DHT22;65080;50.908;6.916;2023-07-28T15:17:19;25.20;68.90
76263;DHT22;65080;50.908;6.916;2023-07-28T15:19:47;25.20;69.40
76263;DHT22;65080;50.908;6.916;2023-07-28T15:22:16;25.10;69.90
76263;DHT22;65080;50.908;6.916;2023-07-28T15:24:44;25.00;70.40
76263;DHT22;65080;50.908;6.916;2023-07-28T15:27:14;25.00;70.60
76263;DHT22;65080;50.908;6.916;2023-07-28T15:29:42;25.00;69.10
76263;DHT22;65080;50.908;6.916;2023-07-28T15:32:10;25.00;68.30
76263;DHT22;65080;50.908;6.916;2023-07-28T15:34:39;25.20;68.90
76263;DHT22;65080;50.908;6.916;2023-07-28T15:37:07;25.60;69.40
76263;DHT22;65080;50.908;6.916;2023-07-28T15:39:35;25.80;68.90
76263;DHT22;65080;50.908;6.916;2023-07-28T15:42:04;26.10;68.60
76263;DHT22;65080;50.908;6.916;2023-07-28T15:44:33;26.30;68.00